SKAR/AXM METAR and TAF weather

Enter ICAO airport designator
Station Type Date Time Source
SKAR METAR 2019/02/22 23:00 UTC NOAA

SKAR 222300Z 32006KT 250V350 9999 VCSH SCT022 SCT100 30/17 A2989 RMK VCSH/NW/N


Station Type Date Time Source
SKAR Decoded METAR 2019/02/22 23:00 UTC NOAA

Armenia / El Eden, Colombia (SKAR) 04-30N 075-43W 1219M
Feb 22, 2019 - 06:00 PM EST / 2019.02.22 2300 UTC
Wind: from the NW (320 degrees) at 7 MPH (6 KT) (direction variable):0
Visibility: greater than 7 mile(s):0
Sky conditions: partly cloudy
Weather: showers in the vicinity
Temperature: 86 F (30 C)
Dew Point: 62 F (17 C)
Relative Humidity: 45%
Pressure (altimeter): 29.89 in. Hg (1012 hPa)
ob: SKAR 222300Z 32006KT 250V350 9999 VCSH SCT022 SCT100 30/17 A2989 RMK VCSH/NW/N
cycle: 23

Station Type Date Time Source
SKAR TAF 2017/06/20 18:24 UTC NOAA

TAF TAF SKAR 201700Z 2018/2118 20006KT 9999 SCT023 BKN090
TEMPO 2021/2023 8000 VCSH SCT018TCU PROB40
TEMPO 2023/2101 7000 DZRA SCT017CB
BECMG 2101/2102 VRB02KT
TEMPO 2111/2113 7000 VCFG TX28/2019Z TN17/2111Z


Example: see airport list